This is the latest recevied weather packets stored in our database for station/object KA1JKB. If no packets are shown the sender has not sent any weather packets the latest 10 day(s).
| Time | Temp. | Humidity | Pressure | Rain* | Wind** | Luminosity | Snow |
|---|---|---|---|---|---|---|---|
| 1777815143 | 11.11° C | 51% | 1011.3 hPa | 0 mm | - | 478 W/m² | - |
| 1777814839 | 11.11° C | 52% | 1011.4 hPa | 0 mm | - | 540 W/m² | - |
| 1777814535 | 10.56° C | 53% | 1011.3 hPa | 0 mm | - | 508 W/m² | - |
| 1777814233 | 10.56° C | 53% | 1011.4 hPa | 0 mm | - | 508 W/m² | - |
| 1777813929 | 10.56° C | 58% | 1011.2 hPa | 0 mm | - | 494 W/m² | - |
| 1777813627 | 10° C | 56% | 1011.4 hPa | 0 mm | - | 467 W/m² | - |
| 1777813324 | 10° C | 57% | 1011.3 hPa | 0 mm | - | 424 W/m² | - |
| 1777813021 | 9.44° C | 58% | 1011.4 hPa | 0 mm | - | 381 W/m² | - |
| 1777812719 | 9.44° C | 59% | 1011.4 hPa | 0 mm | - | 374 W/m² | - |
| 1777812415 | 8.89° C | 59% | 1011.5 hPa | 0 mm | - | 329 W/m² | - |
| 1777812114 | 8.89° C | 62% | 1011.3 hPa | 0 mm | - | 306 W/m² | - |
| 1777811812 | 8.33° C | 63% | 1011.3 hPa | 0 mm | - | 287 W/m² | - |
| 1777811509 | 7.78° C | 63% | 1011.3 hPa | 0 mm | - | 255 W/m² | - |
| 1777811204 | 7.78° C | 64% | 1011.5 hPa | 0 mm | - | 225 W/m² | - |
| 1777810902 | 7.22° C | 64% | 1011.6 hPa | 0 mm | - | 201 W/m² | - |
| 1777810598 | 7.22° C | 65% | 1011.5 hPa | 0 mm | - | 186 W/m² | - |
| 1777810296 | 6.67° C | 66% | 1011.5 hPa | 0 mm | - | 180 W/m² | - |
| 1777809991 | 6.67° C | 66% | 1011.4 hPa | 0 mm | - | 151 W/m² | - |
| 1777809690 | 6.11° C | 70% | 1011.3 hPa | 0 mm | - | 124 W/m² | - |
| 1777809387 | 5.56° C | 69% | 1011.4 hPa | 0 mm | - | 76 W/m² | - |
| 1777809084 | 5.56° C | 71% | 1011.3 hPa | 0 mm | - | 94 W/m² | - |
| 1777808782 | 5.56° C | 71% | 1011.4 hPa | 0 mm | - | 72 W/m² | - |
| 1777808478 | 5° C | 72% | 1011.3 hPa | 0 mm | - | 67 W/m² | - |
| 1777808176 | 4.44° C | 72% | 1011.2 hPa | 0 mm | - | 57 W/m² | - |
| 1777807874 | 4.44° C | 73% | 1011.3 hPa | 0 mm | - | 49 W/m² | - |
* Rain latest hour (hover to see other rain measurements)
** Current wind speed in m/s (hover to see current wind gust speed)